sensor_id;sensor_type;location;lat;lon;timestamp;P1;durP1;ratioP1;P2;durP2;ratioP2
69523;SDS011;56723;42.694;23.286;2023-03-04T06:07:37;21.07;;;13.80;;
69523;SDS011;56723;42.694;23.286;2023-03-04T06:10:05;22.17;;;14.77;;
69523;SDS011;56723;42.694;23.286;2023-03-04T06:12:32;23.80;;;14.20;;
69523;SDS011;56723;42.694;23.286;2023-03-04T06:14:59;22.70;;;13.60;;
69523;SDS011;56723;42.694;23.286;2023-03-04T06:17:28;19.33;;;11.80;;
69523;SDS011;56723;42.694;23.286;2023-03-04T06:19:55;19.70;;;13.40;;
69523;SDS011;56723;42.694;23.286;2023-03-04T06:22:22;25.27;;;16.07;;
69523;SDS011;56723;42.694;23.286;2023-03-04T06:24:49;25.03;;;16.17;;
69523;SDS011;56723;42.694;23.286;2023-03-04T06:27:16;21.93;;;14.00;;
69523;SDS011;56723;42.694;23.286;2023-03-04T06:29:43;21.70;;;14.87;;
69523;SDS011;56723;42.694;23.286;2023-03-04T06:32:10;20.53;;;13.37;;
69523;SDS011;56723;42.694;23.286;2023-03-04T06:34:37;23.20;;;13.90;;
69523;SDS011;56723;42.694;23.286;2023-03-04T06:37:05;22.00;;;13.93;;
69523;SDS011;56723;42.694;23.286;2023-03-04T06:39:32;22.93;;;15.30;;
69523;SDS011;56723;42.694;23.286;2023-03-04T06:41:59;23.53;;;15.47;;
69523;SDS011;56723;42.694;23.286;2023-03-04T06:44:26;23.80;;;15.77;;
69523;SDS011;56723;42.694;23.286;2023-03-04T06:46:53;23.43;;;15.37;;
69523;SDS011;56723;42.694;23.286;2023-03-04T06:49:20;41.00;;;25.67;;
69523;SDS011;56723;42.694;23.286;2023-03-04T06:51:47;34.13;;;23.83;;
69523;SDS011;56723;42.694;23.286;2023-03-04T06:54:13;27.13;;;17.77;;
69523;SDS011;56723;42.694;23.286;2023-03-04T06:56:40;34.67;;;24.33;;
69523;SDS011;56723;42.694;23.286;2023-03-04T06:59:07;27.23;;;18.73;;
69523;SDS011;56723;42.694;23.286;2023-03-04T07:01:34;30.20;;;19.40;;
69523;SDS011;56723;42.694;23.286;2023-03-04T07:20:53;20.07;;;11.10;;
69523;SDS011;56723;42.694;23.286;2023-03-04T07:23:20;22.33;;;12.03;;
69523;SDS011;56723;42.694;23.286;2023-03-04T07:25:47;18.50;;;10.67;;
69523;SDS011;56723;42.694;23.286;2023-03-04T07:28:15;19.17;;;12.30;;
69523;SDS011;56723;42.694;23.286;2023-03-04T07:30:44;19.63;;;11.45;;
69523;SDS011;56723;42.694;23.286;2023-03-04T07:33:11;23.80;;;11.97;;
69523;SDS011;56723;42.694;23.286;2023-03-04T07:35:39;20.80;;;13.17;;
69523;SDS011;56723;42.694;23.286;2023-03-04T07:38:06;20.70;;;13.33;;
69523;SDS011;56723;42.694;23.286;2023-03-04T07:40:33;18.37;;;9.63;;
69523;SDS011;56723;42.694;23.286;2023-03-04T07:43:00;17.83;;;12.20;;
69523;SDS011;56723;42.694;23.286;2023-03-04T07:45:27;30.37;;;18.83;;
69523;SDS011;56723;42.694;23.286;2023-03-04T07:47:54;18.70;;;11.67;;
69523;SDS011;56723;42.694;23.286;2023-03-04T07:50:21;15.80;;;10.87;;
69523;SDS011;56723;42.694;23.286;2023-03-04T07:52:48;19.10;;;12.50;;
69523;SDS011;56723;42.694;23.286;2023-03-04T07:55:18;19.33;;;10.97;;
69523;SDS011;56723;42.694;23.286;2023-03-04T07:57:46;17.07;;;10.27;;
69523;SDS011;56723;42.694;23.286;2023-03-04T08:00:14;17.20;;;10.40;;
69523;SDS011;56723;42.694;23.286;2023-03-04T08:02:42;20.75;;;12.23;;
69523;SDS011;56723;42.694;23.286;2023-03-04T08:05:09;17.23;;;11.73;;
69523;SDS011;56723;42.694;23.286;2023-03-04T08:07:36;18.57;;;11.37;;
69523;SDS011;56723;42.694;23.286;2023-03-04T08:10:03;19.50;;;10.10;;
69523;SDS011;56723;42.694;23.286;2023-03-04T08:12:30;16.53;;;9.73;;
69523;SDS011;56723;42.694;23.286;2023-03-04T08:14:57;18.03;;;11.40;;
69523;SDS011;56723;42.694;23.286;2023-03-04T08:17:24;15.07;;;10.17;;
69523;SDS011;56723;42.694;23.286;2023-03-04T08:19:51;17.73;;;11.40;;
69523;SDS011;56723;42.694;23.286;2023-03-04T08:22:18;20.43;;;11.40;;
69523;SDS011;56723;42.694;23.286;2023-03-04T08:24:45;19.40;;;11.30;;
69523;SDS011;56723;42.694;23.286;2023-03-04T08:27:12;20.10;;;11.37;;
69523;SDS011;56723;42.694;23.286;2023-03-04T08:29:40;18.20;;;10.97;;
69523;SDS011;56723;42.694;23.286;2023-03-04T08:32:07;16.97;;;9.53;;
69523;SDS011;56723;42.694;23.286;2023-03-04T08:34:34;16.30;;;9.87;;
69523;SDS011;56723;42.694;23.286;2023-03-04T08:37:04;17.90;;;9.90;;
69523;SDS011;56723;42.694;23.286;2023-03-04T08:39:31;15.73;;;9.30;;
69523;SDS011;56723;42.694;23.286;2023-03-04T08:42:01;17.87;;;9.27;;
69523;SDS011;56723;42.694;23.286;2023-03-04T08:44:28;19.40;;;10.00;;
69523;SDS011;56723;42.694;23.286;2023-03-04T08:46:55;18.63;;;11.63;;
69523;SDS011;56723;42.694;23.286;2023-03-04T08:49:22;18.90;;;8.70;;
69523;SDS011;56723;42.694;23.286;2023-03-04T08:51:49;19.60;;;9.60;;
69523;SDS011;56723;42.694;23.286;2023-03-04T08:54:16;16.17;;;9.40;;
69523;SDS011;56723;42.694;23.286;2023-03-04T08:56:43;18.53;;;10.17;;
69523;SDS011;56723;42.694;23.286;2023-03-04T08:59:10;17.07;;;10.97;;
69523;SDS011;56723;42.694;23.286;2023-03-04T09:01:37;14.97;;;8.60;;
69523;SDS011;56723;42.694;23.286;2023-03-04T09:04:04;16.20;;;10.77;;
69523;SDS011;56723;42.694;23.286;2023-03-04T09:06:31;19.07;;;9.73;;
69523;SDS011;56723;42.694;23.286;2023-03-04T09:08:58;15.77;;;8.53;;
69523;SDS011;56723;42.694;23.286;2023-03-04T09:11:26;15.77;;;9.43;;
69523;SDS011;56723;42.694;23.286;2023-03-04T09:13:53;16.67;;;9.87;;
69523;SDS011;56723;42.694;23.286;2023-03-04T09:16:20;18.30;;;9.63;;
69523;SDS011;56723;42.694;23.286;2023-03-04T09:18:48;15.00;;;8.60;;
69523;SDS011;56723;42.694;23.286;2023-03-04T09:21:16;17.53;;;9.47;;
69523;SDS011;56723;42.694;23.286;2023-03-04T09:23:43;16.40;;;9.43;;
69523;SDS011;56723;42.694;23.286;2023-03-04T09:28:41;16.60;;;10.57;;
69523;SDS011;56723;42.694;23.286;2023-03-04T09:31:12;18.63;;;10.67;;
69523;SDS011;56723;42.694;23.286;2023-03-04T09:33:40;17.10;;;10.50;;
69523;SDS011;56723;42.694;23.286;2023-03-04T09:36:12;20.43;;;11.40;;
69523;SDS011;56723;42.694;23.286;2023-03-04T09:38:41;18.93;;;11.10;;
69523;SDS011;56723;42.694;23.286;2023-03-04T09:41:15;19.43;;;12.00;;
69523;SDS011;56723;42.694;23.286;2023-03-04T09:43:47;18.97;;;11.80;;
69523;SDS011;56723;42.694;23.286;2023-03-04T09:46:17;21.70;;;11.38;;
69523;SDS011;56723;42.694;23.286;2023-03-04T09:48:52;19.47;;;10.87;;
69523;SDS011;56723;42.694;23.286;2023-03-04T09:51:22;18.83;;;11.77;;
69523;SDS011;56723;42.694;23.286;2023-03-04T09:56:36;21.47;;;11.87;;
69523;SDS011;56723;42.694;23.286;2023-03-04T09:59:23;16.42;;;10.07;;
69523;SDS011;56723;42.694;23.286;2023-03-04T10:01:57;19.03;;;11.37;;
69523;SDS011;56723;42.694;23.286;2023-03-04T10:04:31;18.93;;;11.47;;
69523;SDS011;56723;42.694;23.286;2023-03-04T10:07:14;23.00;;;12.67;;
69523;SDS011;56723;42.694;23.286;2023-03-04T10:09:50;19.63;;;11.83;;
69523;SDS011;56723;42.694;23.286;2023-03-04T10:12:22;21.37;;;12.50;;
69523;SDS011;56723;42.694;23.286;2023-03-04T10:17:46;21.97;;;12.40;;
69523;SDS011;56723;42.694;23.286;2023-03-04T10:20:21;20.57;;;11.47;;
69523;SDS011;56723;42.694;23.286;2023-03-04T10:22:51;20.83;;;12.10;;
69523;SDS011;56723;42.694;23.286;2023-03-04T10:33:34;18.67;;;9.63;;
69523;SDS011;56723;42.694;23.286;2023-03-04T10:38:41;17.05;;;11.57;;
69523;SDS011;56723;42.694;23.286;2023-03-04T10:41:12;18.73;;;11.77;;
69523;SDS011;56723;42.694;23.286;2023-03-04T10:43:39;16.57;;;11.00;;
69523;SDS011;56723;42.694;23.286;2023-03-04T10:46:09;20.30;;;12.25;;
69523;SDS011;56723;42.694;23.286;2023-03-04T10:48:39;19.75;;;10.80;;
69523;SDS011;56723;42.694;23.286;2023-03-04T10:51:20;22.50;;;12.40;;
69523;SDS011;56723;42.694;23.286;2023-03-04T10:53:50;20.73;;;12.27;;
69523;SDS011;56723;42.694;23.286;2023-03-04T11:02:05;18.95;;;11.98;;
69523;SDS011;56723;42.694;23.286;2023-03-04T11:07:07;17.93;;;11.83;;
69523;SDS011;56723;42.694;23.286;2023-03-04T11:09:36;19.50;;;11.85;;
69523;SDS011;56723;42.694;23.286;2023-03-04T11:14:45;19.90;;;12.07;;
69523;SDS011;56723;42.694;23.286;2023-03-04T11:17:19;21.57;;;13.37;;
69523;SDS011;56723;42.694;23.286;2023-03-04T11:19:53;19.47;;;11.67;;
69523;SDS011;56723;42.694;23.286;2023-03-04T11:22:24;20.33;;;10.50;;
69523;SDS011;56723;42.694;23.286;2023-03-04T11:25:01;22.80;;;12.47;;
69523;SDS011;56723;42.694;23.286;2023-03-04T11:27:37;22.77;;;12.33;;
69523;SDS011;56723;42.694;23.286;2023-03-04T11:32:58;19.77;;;12.97;;
69523;SDS011;56723;42.694;23.286;2023-03-04T11:35:54;20.60;;;12.38;;
69523;SDS011;56723;42.694;23.286;2023-03-04T11:38:37;19.58;;;13.15;;
69523;SDS011;56723;42.694;23.286;2023-03-04T11:41:10;18.77;;;10.37;;
69523;SDS011;56723;42.694;23.286;2023-03-04T11:43:42;20.13;;;12.85;;
69523;SDS011;56723;42.694;23.286;2023-03-04T11:54:58;24.10;;;13.88;;
69523;SDS011;56723;42.694;23.286;2023-03-04T11:57:22;22.52;;;11.82;;
69523;SDS011;56723;42.694;23.286;2023-03-04T12:05:54;18.55;;;12.48;;
69523;SDS011;56723;42.694;23.286;2023-03-04T12:08:32;20.90;;;13.10;;
69523;SDS011;56723;42.694;23.286;2023-03-04T12:11:23;29.13;;;14.90;;
69523;SDS011;56723;42.694;23.286;2023-03-04T12:17:07;19.48;;;14.00;;
69523;SDS011;56723;42.694;23.286;2023-03-04T12:33:31;23.42;;;14.30;;
69523;SDS011;56723;42.694;23.286;2023-03-04T12:41:48;20.20;;;12.60;;
69523;SDS011;56723;42.694;23.286;2023-03-04T12:44:24;22.70;;;13.68;;
69523;SDS011;56723;42.694;23.286;2023-03-04T12:55:37;25.35;;;15.25;;
69523;SDS011;56723;42.694;23.286;2023-03-04T12:58:08;24.25;;;14.70;;
69523;SDS011;56723;42.694;23.286;2023-03-04T13:00:50;24.00;;;15.45;;
69523;SDS011;56723;42.694;23.286;2023-03-04T13:14:03;25.55;;;15.52;;
69523;SDS011;56723;42.694;23.286;2023-03-04T13:16:57;21.70;;;13.45;;
69523;SDS011;56723;42.694;23.286;2023-03-04T13:19:46;21.52;;;12.93;;
69523;SDS011;56723;42.694;23.286;2023-03-04T13:25:26;24.15;;;15.25;;
69523;SDS011;56723;42.694;23.286;2023-03-04T13:35:48;19.20;;;13.10;;
69523;SDS011;56723;42.694;23.286;2023-03-04T13:41:13;24.52;;;14.35;;
69523;SDS011;56723;42.694;23.286;2023-03-04T13:51:25;22.23;;;13.95;;
69523;SDS011;56723;42.694;23.286;2023-03-04T13:56:33;21.27;;;12.70;;
69523;SDS011;56723;42.694;23.286;2023-03-04T14:04:17;24.40;;;15.02;;
69523;SDS011;56723;42.694;23.286;2023-03-04T14:06:50;23.35;;;14.50;;
69523;SDS011;56723;42.694;23.286;2023-03-04T14:09:19;25.15;;;14.30;;
69523;SDS011;56723;42.694;23.286;2023-03-04T14:11:49;26.02;;;14.88;;
69523;SDS011;56723;42.694;23.286;2023-03-04T14:14:19;21.10;;;13.77;;
69523;SDS011;56723;42.694;23.286;2023-03-04T14:16:50;22.95;;;14.95;;
69523;SDS011;56723;42.694;23.286;2023-03-04T14:19:25;22.40;;;13.95;;
69523;SDS011;56723;42.694;23.286;2023-03-04T14:21:54;22.70;;;14.18;;
69523;SDS011;56723;42.694;23.286;2023-03-04T14:24:22;25.77;;;16.67;;
69523;SDS011;56723;42.694;23.286;2023-03-04T14:27:02;23.42;;;13.82;;
69523;SDS011;56723;42.694;23.286;2023-03-04T14:29:35;25.88;;;14.85;;
69523;SDS011;56723;42.694;23.286;2023-03-04T14:32:03;22.95;;;15.20;;
69523;SDS011;56723;42.694;23.286;2023-03-04T14:34:33;26.02;;;14.85;;
69523;SDS011;56723;42.694;23.286;2023-03-04T14:37:17;25.52;;;15.65;;
69523;SDS011;56723;42.694;23.286;2023-03-04T14:39:48;23.73;;;15.97;;
69523;SDS011;56723;42.694;23.286;2023-03-04T14:42:17;27.83;;;15.88;;
69523;SDS011;56723;42.694;23.286;2023-03-04T14:44:47;26.67;;;15.10;;
69523;SDS011;56723;42.694;23.286;2023-03-04T14:47:18;58.85;;;39.70;;
69523;SDS011;56723;42.694;23.286;2023-03-04T14:49:51;289.48;;;118.78;;
69523;SDS011;56723;42.694;23.286;2023-03-04T14:52:26;104.60;;;44.75;;
69523;SDS011;56723;42.694;23.286;2023-03-04T14:55:27;26.33;;;15.15;;
69523;SDS011;56723;42.694;23.286;2023-03-04T14:58:05;21.45;;;14.52;;
69523;SDS011;56723;42.694;23.286;2023-03-04T15:00:45;24.88;;;13.50;;
69523;SDS011;56723;42.694;23.286;2023-03-04T15:05:48;23.48;;;15.15;;
69523;SDS011;56723;42.694;23.286;2023-03-04T15:10:54;28.58;;;18.77;;
69523;SDS011;56723;42.694;23.286;2023-03-04T15:16:27;25.13;;;15.20;;
69523;SDS011;56723;42.694;23.286;2023-03-04T15:21:38;21.80;;;15.07;;
69523;SDS011;56723;42.694;23.286;2023-03-04T15:24:08;21.80;;;13.65;;
69523;SDS011;56723;42.694;23.286;2023-03-04T15:26:37;16.50;;;11.18;;
69523;SDS011;56723;42.694;23.286;2023-03-04T15:29:13;20.50;;;13.05;;
69523;SDS011;56723;42.694;23.286;2023-03-04T15:31:42;19.27;;;10.35;;
69523;SDS011;56723;42.694;23.286;2023-03-04T15:34:16;19.00;;;12.25;;
69523;SDS011;56723;42.694;23.286;2023-03-04T15:36:46;15.85;;;11.13;;
69523;SDS011;56723;42.694;23.286;2023-03-04T15:39:16;19.40;;;12.18;;
69523;SDS011;56723;42.694;23.286;2023-03-04T15:41:44;21.92;;;11.43;;
69523;SDS011;56723;42.694;23.286;2023-03-04T15:44:12;20.73;;;13.85;;
69523;SDS011;56723;42.694;23.286;2023-03-04T15:46:39;22.00;;;14.13;;
69523;SDS011;56723;42.694;23.286;2023-03-04T15:49:06;21.23;;;13.50;;
69523;SDS011;56723;42.694;23.286;2023-03-04T15:51:33;20.13;;;12.45;;
69523;SDS011;56723;42.694;23.286;2023-03-04T15:54:01;27.35;;;16.88;;
69523;SDS011;56723;42.694;23.286;2023-03-04T15:56:30;26.00;;;15.82;;
69523;SDS011;56723;42.694;23.286;2023-03-04T15:59:03;27.60;;;17.95;;
69523;SDS011;56723;42.694;23.286;2023-03-04T16:01:35;28.58;;;18.40;;
69523;SDS011;56723;42.694;23.286;2023-03-04T16:04:02;32.25;;;20.08;;
69523;SDS011;56723;42.694;23.286;2023-03-04T16:06:30;36.28;;;18.35;;
69523;SDS011;56723;42.694;23.286;2023-03-04T16:08:58;26.30;;;15.95;;
69523;SDS011;56723;42.694;23.286;2023-03-04T16:11:27;31.88;;;19.10;;
69523;SDS011;56723;42.694;23.286;2023-03-04T16:13:57;30.85;;;19.80;;
69523;SDS011;56723;42.694;23.286;2023-03-04T16:16:24;33.77;;;20.40;;
69523;SDS011;56723;42.694;23.286;2023-03-04T16:18:51;27.98;;;19.23;;
69523;SDS011;56723;42.694;23.286;2023-03-04T16:21:19;30.95;;;20.77;;
69523;SDS011;56723;42.694;23.286;2023-03-04T16:23:48;31.00;;;17.77;;
69523;SDS011;56723;42.694;23.286;2023-03-04T16:26:18;30.50;;;18.75;;
69523;SDS011;56723;42.694;23.286;2023-03-04T16:31:14;30.80;;;19.13;;
69523;SDS011;56723;42.694;23.286;2023-03-04T16:33:42;32.60;;;19.07;;
69523;SDS011;56723;42.694;23.286;2023-03-04T16:36:12;32.92;;;20.02;;
69523;SDS011;56723;42.694;23.286;2023-03-04T16:38:41;33.37;;;20.20;;
69523;SDS011;56723;42.694;23.286;2023-03-04T16:41:12;32.27;;;19.80;;
69523;SDS011;56723;42.694;23.286;2023-03-04T16:43:41;31.23;;;17.57;;
69523;SDS011;56723;42.694;23.286;2023-03-04T16:46:09;29.17;;;18.50;;
69523;SDS011;56723;42.694;23.286;2023-03-04T16:48:38;33.47;;;21.58;;
69523;SDS011;56723;42.694;23.286;2023-03-04T16:51:11;42.25;;;24.38;;
69523;SDS011;56723;42.694;23.286;2023-03-04T16:53:42;39.20;;;27.50;;
69523;SDS011;56723;42.694;23.286;2023-03-04T16:56:15;47.50;;;28.73;;
69523;SDS011;56723;42.694;23.286;2023-03-04T16:58:44;40.57;;;24.80;;
69523;SDS011;56723;42.694;23.286;2023-03-04T17:01:19;36.43;;;23.27;;
69523;SDS011;56723;42.694;23.286;2023-03-04T17:03:51;34.17;;;21.17;;
69523;SDS011;56723;42.694;23.286;2023-03-04T17:06:19;32.47;;;22.03;;
69523;SDS011;56723;42.694;23.286;2023-03-04T17:08:47;31.43;;;19.33;;
69523;SDS011;56723;42.694;23.286;2023-03-04T17:11:15;32.37;;;22.13;;
69523;SDS011;56723;42.694;23.286;2023-03-04T17:13:47;31.37;;;18.73;;
69523;SDS011;56723;42.694;23.286;2023-03-04T17:16:15;33.53;;;19.77;;
69523;SDS011;56723;42.694;23.286;2023-03-04T17:18:42;32.33;;;21.63;;
69523;SDS011;56723;42.694;23.286;2023-03-04T17:21:13;30.33;;;20.42;;
69523;SDS011;56723;42.694;23.286;2023-03-04T17:23:42;35.80;;;21.87;;
69523;SDS011;56723;42.694;23.286;2023-03-04T17:26:09;35.23;;;25.00;;
69523;SDS011;56723;42.694;23.286;2023-03-04T17:28:37;38.10;;;27.53;;
69523;SDS011;56723;42.694;23.286;2023-03-04T17:31:11;35.80;;;26.67;;
69523;SDS011;56723;42.694;23.286;2023-03-04T17:33:40;37.70;;;23.50;;
69523;SDS011;56723;42.694;23.286;2023-03-04T17:36:10;35.13;;;23.55;;
69523;SDS011;56723;42.694;23.286;2023-03-04T17:38:37;37.83;;;21.73;;
69523;SDS011;56723;42.694;23.286;2023-03-04T17:41:05;41.67;;;24.90;;
69523;SDS011;56723;42.694;23.286;2023-03-04T17:43:34;31.97;;;22.67;;
69523;SDS011;56723;42.694;23.286;2023-03-04T17:46:02;33.30;;;21.50;;
69523;SDS011;56723;42.694;23.286;2023-03-04T17:48:33;33.90;;;22.07;;
69523;SDS011;56723;42.694;23.286;2023-03-04T17:51:01;33.37;;;21.73;;
69523;SDS011;56723;42.694;23.286;2023-03-04T17:53:28;39.90;;;24.13;;
69523;SDS011;56723;42.694;23.286;2023-03-04T17:55:56;36.27;;;23.80;;
69523;SDS011;56723;42.694;23.286;2023-03-04T17:58:28;32.60;;;22.13;;
69523;SDS011;56723;42.694;23.286;2023-03-04T18:01:00;40.15;;;24.13;;
69523;SDS011;56723;42.694;23.286;2023-03-04T18:03:29;32.97;;;21.33;;
69523;SDS011;56723;42.694;23.286;2023-03-04T18:05:56;38.30;;;23.00;;
69523;SDS011;56723;42.694;23.286;2023-03-04T18:08:23;33.63;;;22.33;;
69523;SDS011;56723;42.694;23.286;2023-03-04T18:10:50;34.03;;;20.83;;
69523;SDS011;56723;42.694;23.286;2023-03-04T18:13:17;37.13;;;22.07;;
69523;SDS011;56723;42.694;23.286;2023-03-04T18:15:44;39.13;;;23.57;;
69523;SDS011;56723;42.694;23.286;2023-03-04T18:18:11;38.00;;;25.53;;
69523;SDS011;56723;42.694;23.286;2023-03-04T18:20:38;34.63;;;23.83;;
69523;SDS011;56723;42.694;23.286;2023-03-04T18:23:05;35.80;;;23.30;;
69523;SDS011;56723;42.694;23.286;2023-03-04T18:25:33;37.40;;;23.10;;
69523;SDS011;56723;42.694;23.286;2023-03-04T18:28:00;45.07;;;25.80;;
69523;SDS011;56723;42.694;23.286;2023-03-04T18:30:28;38.90;;;23.53;;
69523;SDS011;56723;42.694;23.286;2023-03-04T18:32:56;35.37;;;20.17;;
69523;SDS011;56723;42.694;23.286;2023-03-04T18:35:26;35.23;;;23.63;;
69523;SDS011;56723;42.694;23.286;2023-03-04T18:37:59;43.23;;;26.40;;
69523;SDS011;56723;42.694;23.286;2023-03-04T18:40:26;42.20;;;26.07;;
69523;SDS011;56723;42.694;23.286;2023-03-04T18:42:54;41.70;;;24.83;;
69523;SDS011;56723;42.694;23.286;2023-03-04T18:45:22;48.33;;;26.57;;
69523;SDS011;56723;42.694;23.286;2023-03-04T18:47:49;41.10;;;25.90;;
69523;SDS011;56723;42.694;23.286;2023-03-04T18:50:18;40.10;;;25.52;;
69523;SDS011;56723;42.694;23.286;2023-03-04T18:52:47;45.60;;;25.45;;
69523;SDS011;56723;42.694;23.286;2023-03-04T18:55:15;47.33;;;28.13;;
69523;SDS011;56723;42.694;23.286;2023-03-04T18:57:44;51.73;;;28.80;;
69523;SDS011;56723;42.694;23.286;2023-03-04T19:00:16;42.03;;;26.60;;
69523;SDS011;56723;42.694;23.286;2023-03-04T19:02:46;43.13;;;25.90;;
69523;SDS011;56723;42.694;23.286;2023-03-04T19:05:19;39.30;;;25.17;;
69523;SDS011;56723;42.694;23.286;2023-03-04T19:07:50;43.03;;;26.50;;
69523;SDS011;56723;42.694;23.286;2023-03-04T19:10:18;45.50;;;26.63;;
69523;SDS011;56723;42.694;23.286;2023-03-04T19:12:46;38.43;;;23.00;;
69523;SDS011;56723;42.694;23.286;2023-03-04T19:15:13;38.30;;;25.13;;
69523;SDS011;56723;42.694;23.286;2023-03-04T19:17:40;41.87;;;26.17;;
69523;SDS011;56723;42.694;23.286;2023-03-04T19:20:11;35.37;;;22.43;;
69523;SDS011;56723;42.694;23.286;2023-03-04T19:22:39;48.83;;;29.10;;
69523;SDS011;56723;42.694;23.286;2023-03-04T19:25:07;122.53;;;78.10;;
69523;SDS011;56723;42.694;23.286;2023-03-04T19:27:34;156.73;;;95.17;;
69523;SDS011;56723;42.694;23.286;2023-03-04T19:30:02;145.13;;;88.87;;
69523;SDS011;56723;42.694;23.286;2023-03-04T19:32:30;127.57;;;80.25;;
69523;SDS011;56723;42.694;23.286;2023-03-04T19:34:58;87.93;;;56.20;;
69523;SDS011;56723;42.694;23.286;2023-03-04T19:37:24;80.57;;;53.47;;
69523;SDS011;56723;42.694;23.286;2023-03-04T19:39:52;77.30;;;48.13;;
69523;SDS011;56723;42.694;23.286;2023-03-04T19:42:21;77.18;;;47.85;;
69523;SDS011;56723;42.694;23.286;2023-03-04T19:44:50;73.45;;;48.38;;
69523;SDS011;56723;42.694;23.286;2023-03-04T19:47:17;70.53;;;43.13;;
69523;SDS011;56723;42.694;23.286;2023-03-04T19:49:44;62.67;;;39.10;;
69523;SDS011;56723;42.694;23.286;2023-03-04T19:52:12;53.20;;;35.77;;
69523;SDS011;56723;42.694;23.286;2023-03-04T19:54:39;53.93;;;31.83;;
69523;SDS011;56723;42.694;23.286;2023-03-04T19:57:06;45.07;;;30.13;;
69523;SDS011;56723;42.694;23.286;2023-03-04T19:59:33;40.87;;;26.33;;
69523;SDS011;56723;42.694;23.286;2023-03-04T20:02:00;31.47;;;20.83;;
69523;SDS011;56723;42.694;23.286;2023-03-04T20:04:27;29.33;;;19.20;;
69523;SDS011;56723;42.694;23.286;2023-03-04T20:06:54;30.90;;;19.57;;
69523;SDS011;56723;42.694;23.286;2023-03-04T20:09:21;26.27;;;16.77;;
69523;SDS011;56723;42.694;23.286;2023-03-04T20:11:48;21.20;;;13.10;;
69523;SDS011;56723;42.694;23.286;2023-03-04T20:14:27;28.00;;;16.70;;
69523;SDS011;56723;42.694;23.286;2023-03-04T20:16:57;27.47;;;17.13;;
69523;SDS011;56723;42.694;23.286;2023-03-04T20:19:27;20.93;;;13.00;;
69523;SDS011;56723;42.694;23.286;2023-03-04T20:21:55;32.40;;;18.05;;
69523;SDS011;56723;42.694;23.286;2023-03-04T20:24:23;29.17;;;19.37;;
69523;SDS011;56723;42.694;23.286;2023-03-04T20:26:51;35.30;;;21.03;;
69523;SDS011;56723;42.694;23.286;2023-03-04T20:29:19;28.93;;;16.77;;
69523;SDS011;56723;42.694;23.286;2023-03-04T20:31:46;29.10;;;16.73;;
69523;SDS011;56723;42.694;23.286;2023-03-04T20:34:13;28.87;;;17.37;;
69523;SDS011;56723;42.694;23.286;2023-03-04T20:36:40;32.50;;;19.53;;
69523;SDS011;56723;42.694;23.286;2023-03-04T20:39:07;31.37;;;16.97;;
69523;SDS011;56723;42.694;23.286;2023-03-04T20:41:54;33.93;;;20.27;;
69523;SDS011;56723;42.694;23.286;2023-03-04T20:44:21;31.83;;;19.53;;
69523;SDS011;56723;42.694;23.286;2023-03-04T20:46:48;38.27;;;19.93;;
69523;SDS011;56723;42.694;23.286;2023-03-04T20:49:16;31.40;;;17.83;;
69523;SDS011;56723;42.694;23.286;2023-03-04T20:51:50;30.63;;;17.07;;
69523;SDS011;56723;42.694;23.286;2023-03-04T20:54:18;29.90;;;18.13;;
69523;SDS011;56723;42.694;23.286;2023-03-04T20:56:45;27.97;;;16.67;;
69523;SDS011;56723;42.694;23.286;2023-03-04T20:59:13;28.70;;;17.03;;
69523;SDS011;56723;42.694;23.286;2023-03-04T21:01:41;29.23;;;18.07;;
69523;SDS011;56723;42.694;23.286;2023-03-04T21:04:10;32.72;;;18.83;;
69523;SDS011;56723;42.694;23.286;2023-03-04T21:06:37;35.33;;;19.30;;
69523;SDS011;56723;42.694;23.286;2023-03-04T21:09:06;33.37;;;19.83;;
69523;SDS011;56723;42.694;23.286;2023-03-04T21:11:38;34.37;;;19.77;;
69523;SDS011;56723;42.694;23.286;2023-03-04T21:14:11;31.77;;;20.03;;
69523;SDS011;56723;42.694;23.286;2023-03-04T21:16:49;28.50;;;16.40;;
69523;SDS011;56723;42.694;23.286;2023-03-04T21:19:19;31.10;;;18.00;;
69523;SDS011;56723;42.694;23.286;2023-03-04T21:21:48;29.45;;;17.70;;
69523;SDS011;56723;42.694;23.286;2023-03-04T21:24:17;30.48;;;17.73;;
69523;SDS011;56723;42.694;23.286;2023-03-04T21:26:47;33.80;;;19.13;;
69523;SDS011;56723;42.694;23.286;2023-03-04T21:29:15;30.77;;;17.57;;
69523;SDS011;56723;42.694;23.286;2023-03-04T21:31:45;28.27;;;17.80;;
69523;SDS011;56723;42.694;23.286;2023-03-04T21:34:16;31.40;;;17.90;;
69523;SDS011;56723;42.694;23.286;2023-03-04T21:36:48;29.67;;;17.73;;
69523;SDS011;56723;42.694;23.286;2023-03-04T21:39:19;28.83;;;17.50;;
69523;SDS011;56723;42.694;23.286;2023-03-04T21:41:48;32.93;;;18.33;;
69523;SDS011;56723;42.694;23.286;2023-03-04T21:44:15;29.63;;;17.70;;
69523;SDS011;56723;42.694;23.286;2023-03-04T21:46:58;28.13;;;16.93;;
69523;SDS011;56723;42.694;23.286;2023-03-04T21:49:26;29.47;;;17.30;;
